MHTG/TGU METAR and TAF weather

Enter ICAO airport designator
Station Type Date Time Source
MHTG METAR 2019/02/23 23:00 UTC NOAA

MHTG 232300Z 09004KT 9999 BKN032TCU 27/14 Q1016 A3000 NOSIG


Station Type Date Time Source
MHTG Decoded METAR 2019/02/23 23:00 UTC NOAA

Tegucigalpa, Honduras (MHTG) 14-03N 087-13W 1007M
Feb 23, 2019 - 06:00 PM EST / 2019.02.23 2300 UTC
Wind: from the E (090 degrees) at 5 MPH (4 KT):0
Visibility: greater than 7 mile(s):0
Sky conditions: mostly cloudy
Weather: Towering cumulus clouds observed
Temperature: 80 F (27 C)
Dew Point: 57 F (14 C)
Relative Humidity: 44%
Pressure (altimeter): 30 in. Hg (1015 hPa)
ob: MHTG 232300Z 09004KT 9999 BKN032TCU 27/14 Q1016 A3000 NOSIG
cycle: 23

Station Type Date Time Source
MHTG TAF 2019/02/23 18:25 UTC NOAA

TAF MHTG 231625Z 2318/2418 08002KT 9999 BKN028TCU TX29/2321Z TN16/2412Z PROB30 2401/2405 8000 VCSH SCT028 SCT080
BECMG 2405/2407 9999 NSW SCT026
BECMG 2409/2411 03005KT FEW010 SCT024


Example: see airport list